createdAt,value
2022-11-09T00:00:11.631Z,20.50
2022-11-09T00:02:43.711Z,20.33
2022-11-09T00:05:10.535Z,15.50
2022-11-09T00:07:37.897Z,19.67
2022-11-09T00:10:04.405Z,24.00
2022-11-09T00:12:31.797Z,22.00
2022-11-09T00:14:58.258Z,24.50
2022-11-09T00:17:25.644Z,23.67
2022-11-09T00:19:52.088Z,28.50
2022-11-09T00:22:18.564Z,22.00
2022-11-09T00:24:45.946Z,24.00
2022-11-09T00:27:17.334Z,20.50
2022-11-09T00:29:45.063Z,22.00
2022-11-09T00:32:11.523Z,24.00
2022-11-09T00:34:37.963Z,22.00
2022-11-09T00:37:04.407Z,17.50
2022-11-09T00:39:31.772Z,20.67
2022-11-09T00:41:59.136Z,22.33
2022-11-09T00:44:25.618Z,24.00
2022-11-09T00:46:52.060Z,22.50
2022-11-09T00:49:18.503Z,22.50
2022-11-09T00:51:44.905Z,19.00
2022-11-09T00:54:11.328Z,21.50
2022-11-09T00:56:37.771Z,12.50
2022-11-09T00:59:05.146Z,23.67
2022-11-09T01:01:32.577Z,18.33
2022-11-09T01:03:59.975Z,20.67
2022-11-09T01:06:26.524Z,21.50
2022-11-09T01:08:54.001Z,23.67
2022-11-09T01:11:21.430Z,19.00
2022-11-09T01:16:33.688Z,21.67
2022-11-09T01:19:00.151Z,23.00
2022-11-09T01:21:26.609Z,22.50
2022-11-09T01:23:53.064Z,20.50
2022-11-09T01:26:19.524Z,23.50
2022-11-09T01:31:42.039Z,22.00
2022-11-09T01:34:08.493Z,23.00
2022-11-09T01:36:34.937Z,23.00
2022-11-09T01:39:01.377Z,23.00
2022-11-09T01:41:27.808Z,22.50
2022-11-09T01:46:49.955Z,22.00
2022-11-09T01:49:17.399Z,23.00
2022-11-09T01:51:44.754Z,24.67
2022-11-09T01:54:11.189Z,21.00
2022-11-09T01:56:38.532Z,22.00
2022-11-09T02:01:49.671Z,23.50
2022-11-09T02:04:16.097Z,22.00
2022-11-09T02:06:43.525Z,23.00
2022-11-09T02:09:10.901Z,21.00
2022-11-09T02:11:38.280Z,26.33
2022-11-09T02:16:49.407Z,25.00
2022-11-09T02:19:16.767Z,23.00
2022-11-09T02:21:43.220Z,24.50
2022-11-09T02:24:10.590Z,22.00
2022-11-09T02:26:37.026Z,22.50
2022-11-09T02:31:47.230Z,24.50
2022-11-09T02:34:14.598Z,22.50
2022-11-09T02:36:41.982Z,23.67
2022-11-09T02:39:08.464Z,24.00
2022-11-09T02:41:34.904Z,27.00
2022-11-09T02:46:57.122Z,21.67
2022-11-09T02:49:23.554Z,25.50
2022-11-09T02:51:51.088Z,18.67
2022-11-09T02:54:18.470Z,27.00
2022-11-09T02:56:44.905Z,28.50
2022-11-09T03:02:05.229Z,19.50
2022-11-09T03:04:31.692Z,26.00
2022-11-09T03:06:59.131Z,26.33
2022-11-09T03:09:26.545Z,23.00
2022-11-09T03:11:52.993Z,25.00
2022-11-09T03:17:13.253Z,22.00
2022-11-09T03:19:40.645Z,23.00
2022-11-09T03:22:08.036Z,24.67
2022-11-09T03:24:34.559Z,29.50
2022-11-09T03:27:01.010Z,29.00
2022-11-09T03:32:12.534Z,28.50
2022-11-09T03:34:38.974Z,28.50
2022-11-09T03:37:06.407Z,25.00
2022-11-09T03:39:32.858Z,27.00
2022-11-09T03:41:59.374Z,25.50
2022-11-09T03:47:09.792Z,29.00
2022-11-09T03:49:36.253Z,29.00
2022-11-09T03:52:03.687Z,26.00
2022-11-09T03:54:31.100Z,28.33
2022-11-09T03:56:57.533Z,26.50
2022-11-09T04:02:18.754Z,29.50
2022-11-09T04:04:46.118Z,24.33
2022-11-09T04:07:13.586Z,26.00
2022-11-09T04:09:40.076Z,25.00
2022-11-09T04:12:07.451Z,24.67
2022-11-09T04:17:28.700Z,26.50
2022-11-09T04:19:56.158Z,26.33
2022-11-09T04:22:22.641Z,24.00
2022-11-09T04:24:50.017Z,27.67
2022-11-09T04:27:17.385Z,25.33
2022-11-09T04:32:29.851Z,23.00
2022-11-09T04:34:57.234Z,24.33
2022-11-09T04:37:24.676Z,24.33
2022-11-09T04:39:51.129Z,27.00
2022-11-09T04:42:17.663Z,25.50
2022-11-09T04:47:29.270Z,23.00
2022-11-09T04:49:56.628Z,25.00
2022-11-09T04:52:24.021Z,24.33
2022-11-09T04:54:50.477Z,25.00
2022-11-09T04:57:16.928Z,25.00
2022-11-09T05:02:39.418Z,26.00
2022-11-09T05:05:06.898Z,27.33
2022-11-09T05:07:33.223Z,3.00
2022-11-09T05:09:59.679Z,28.00
2022-11-09T05:12:26.128Z,27.00
2022-11-09T05:17:36.470Z,27.00
2022-11-09T05:20:02.940Z,28.00
2022-11-09T05:22:29.399Z,29.50
2022-11-09T05:24:55.855Z,25.50
2022-11-09T05:27:23.232Z,24.67
2022-11-09T05:32:45.690Z,30.00
2022-11-09T05:35:13.048Z,30.50
2022-11-09T05:37:39.495Z,28.50
2022-11-09T05:40:06.898Z,25.33
2022-11-09T05:42:33.342Z,27.00
2022-11-09T05:47:54.621Z,30.33
2022-11-09T05:50:22.085Z,27.00
2022-11-09T05:52:49.512Z,26.00
2022-11-09T05:55:15.942Z,27.00
2022-11-09T05:57:42.456Z,30.50
2022-11-09T06:02:53.965Z,24.50
2022-11-09T06:05:20.423Z,33.00
2022-11-09T06:07:47.214Z,25.50
2022-11-09T06:10:13.719Z,27.00
2022-11-09T06:12:41.116Z,28.00
2022-11-09T06:17:51.444Z,34.00
2022-11-09T06:20:18.824Z,29.50
2022-11-09T06:22:45.256Z,30.00
2022-11-09T06:25:12.044Z,21.50
2022-11-09T06:27:39.676Z,29.00
2022-11-09T06:33:02.452Z,26.00
2022-11-09T06:35:30.182Z,21.33
2022-11-09T06:37:56.888Z,24.00
2022-11-09T06:40:24.606Z,25.00
2022-11-09T06:42:51.099Z,25.00
2022-11-09T06:48:12.454Z,28.00
2022-11-09T06:50:38.899Z,27.00
2022-11-09T06:53:06.322Z,26.00
2022-11-09T06:55:33.694Z,22.00
2022-11-09T06:58:01.113Z,24.00
2022-11-09T07:03:22.606Z,24.33
2022-11-09T07:05:50.370Z,25.00
2022-11-09T07:08:16.821Z,29.00
2022-11-09T07:10:44.253Z,28.67
2022-11-09T07:13:11.652Z,25.50
2022-11-09T07:18:23.159Z,19.67
2022-11-09T07:20:49.600Z,28.00
2022-11-09T07:23:17.090Z,23.67
2022-11-09T07:25:43.627Z,27.50
2022-11-09T07:28:11.002Z,32.00
2022-11-09T07:33:33.086Z,25.00
2022-11-09T07:35:59.626Z,26.50
2022-11-09T07:38:26.084Z,28.00
2022-11-09T07:40:53.485Z,32.00
2022-11-09T07:43:20.319Z,22.00
2022-11-09T07:48:31.901Z,26.33
2022-11-09T07:50:59.290Z,25.67
2022-11-09T07:53:25.781Z,28.00
2022-11-09T07:55:52.267Z,28.00
2022-11-09T07:58:19.635Z,27.50
2022-11-09T08:03:31.208Z,27.00
2022-11-09T08:05:58.524Z,23.67
2022-11-09T08:08:25.010Z,35.50
2022-11-09T08:10:51.530Z,29.00
2022-11-09T08:13:19.234Z,39.50
2022-11-09T08:18:29.715Z,28.00
2022-11-09T08:20:57.085Z,27.50
2022-11-09T08:23:23.544Z,26.00
2022-11-09T08:25:49.985Z,26.00
2022-11-09T08:28:16.519Z,26.00
2022-11-09T08:33:38.081Z,25.00
2022-11-09T08:36:04.538Z,24.00
2022-11-09T08:38:31.004Z,27.50
2022-11-09T08:40:57.486Z,26.50
2022-11-09T08:43:23.946Z,31.50
2022-11-09T08:48:44.181Z,24.50
2022-11-09T08:51:11.604Z,30.50
2022-11-09T08:53:38.027Z,23.50
2022-11-09T08:56:05.434Z,25.00
2022-11-09T08:58:32.808Z,22.67
2022-11-09T09:03:53.984Z,24.00
2022-11-09T09:06:20.436Z,24.00
2022-11-09T09:08:47.819Z,23.33
2022-11-09T09:11:14.322Z,22.00
2022-11-09T09:13:43.551Z,22.50
2022-11-09T09:18:54.569Z,27.00
2022-11-09T09:21:22.009Z,26.33
2022-11-09T09:23:48.452Z,23.00
2022-11-09T09:26:15.810Z,25.00
2022-11-09T09:28:42.327Z,22.50
2022-11-09T09:33:53.917Z,23.67
2022-11-09T09:36:20.366Z,23.00
2022-11-09T09:38:47.805Z,23.67
2022-11-09T09:41:15.150Z,22.50
2022-11-09T09:43:43.275Z,23.00
2022-11-09T09:49:05.078Z,23.67
2022-11-09T09:51:31.542Z,29.50
2022-11-09T09:53:58.001Z,23.50
2022-11-09T09:56:24.498Z,29.00
2022-11-09T09:58:50.941Z,26.00
2022-11-09T10:04:12.474Z,24.50
2022-11-09T10:06:38.998Z,26.00
2022-11-09T10:09:05.512Z,27.50
2022-11-09T10:11:32.000Z,24.00
2022-11-09T10:13:58.446Z,32.00
2022-11-09T10:19:09.106Z,29.00
2022-11-09T10:21:36.474Z,31.50
2022-11-09T10:24:03.906Z,36.00
2022-11-09T10:26:31.275Z,29.50
2022-11-09T10:29:15.643Z,28.50
2022-11-09T10:34:28.956Z,31.00
2022-11-09T10:36:55.473Z,32.00
2022-11-09T10:39:21.986Z,34.00
2022-11-09T10:41:48.451Z,32.50
2022-11-09T10:44:17.633Z,30.50
2022-11-09T10:49:28.429Z,30.50
2022-11-09T10:51:54.897Z,31.00
2022-11-09T10:54:21.353Z,29.00
2022-11-09T10:59:35.174Z,28.00
2022-11-09T11:04:55.465Z,31.00
2022-11-09T11:07:22.020Z,29.00
2022-11-09T11:09:48.589Z,34.00
2022-11-09T11:12:16.019Z,30.50
2022-11-09T11:14:42.513Z,37.50
2022-11-09T11:19:55.116Z,33.00
2022-11-09T11:22:21.581Z,31.00
2022-11-09T11:24:48.068Z,30.00
2022-11-09T11:27:15.446Z,29.50
2022-11-09T11:29:41.934Z,28.50
2022-11-09T11:35:00.303Z,25.50
2022-11-09T11:37:27.700Z,31.50
2022-11-09T11:39:54.248Z,27.00
2022-11-09T11:42:21.882Z,28.50
2022-11-09T11:44:56.742Z,29.00
2022-11-09T11:50:24.459Z,30.50
2022-11-09T11:52:51.871Z,29.50
2022-11-09T11:55:19.277Z,29.50
2022-11-09T11:57:45.758Z,28.00
2022-11-09T12:00:12.215Z,24.00
2022-11-09T12:05:23.390Z,26.00
2022-11-09T12:07:52.290Z,23.50
2022-11-09T12:10:23.591Z,30.50
2022-11-09T12:12:50.051Z,33.50
2022-11-09T12:15:16.520Z,28.00
2022-11-09T12:20:28.308Z,25.67
2022-11-09T12:22:54.779Z,31.00
2022-11-09T12:25:21.258Z,28.00
2022-11-09T12:27:47.726Z,29.00
2022-11-09T12:30:14.209Z,28.00
2022-11-09T12:35:35.566Z,20.50
2022-11-09T12:38:02.974Z,25.00
2022-11-09T12:40:30.381Z,27.67
2022-11-09T12:42:56.831Z,26.50
2022-11-09T12:45:23.293Z,28.50
2022-11-09T12:50:34.651Z,22.00
2022-11-09T12:53:01.136Z,28.00
2022-11-09T12:55:27.583Z,28.00
2022-11-09T12:57:58.223Z,27.00
2022-11-09T13:00:28.055Z,24.00
2022-11-09T13:05:39.370Z,22.00
2022-11-09T13:08:06.757Z,27.33
2022-11-09T13:10:33.211Z,19.00
2022-11-09T13:13:00.607Z,20.67
2022-11-09T13:15:28.013Z,19.00
2022-11-09T13:20:57.762Z,20.33
2022-11-09T13:23:41.544Z,22.00
2022-11-09T13:26:10.757Z,21.00
2022-11-09T13:28:37.166Z,21.00
2022-11-09T13:31:04.558Z,22.67
2022-11-09T13:36:26.090Z,24.67
2022-11-09T13:38:52.593Z,22.50
2022-11-09T13:41:19.032Z,19.00
2022-11-09T13:43:46.281Z,16.67
2022-11-09T13:46:13.959Z,22.50
2022-11-09T13:51:25.573Z,21.00
2022-11-09T13:53:52.965Z,21.67
2022-11-09T13:56:24.721Z,22.00
2022-11-09T13:58:54.443Z,21.33
2022-11-09T14:01:21.814Z,19.00
2022-11-09T14:06:32.716Z,24.50
2022-11-09T14:09:00.089Z,22.33
2022-11-09T14:11:26.760Z,28.00
2022-11-09T14:13:55.989Z,24.00
2022-11-09T14:16:24.366Z,25.50
2022-11-09T14:21:45.865Z,20.00
2022-11-09T14:24:12.323Z,20.50
2022-11-09T14:26:38.778Z,26.50
2022-11-09T14:29:05.258Z,28.00
2022-11-09T14:31:32.640Z,25.67
2022-11-09T14:36:54.679Z,26.33
2022-11-09T14:39:22.094Z,21.00
2022-11-09T14:41:48.834Z,22.00
2022-11-09T14:44:15.298Z,24.00
2022-11-09T14:46:41.752Z,29.00
2022-11-09T14:51:52.406Z,25.50
2022-11-09T14:54:19.788Z,29.00
2022-11-09T14:56:47.210Z,23.67
2022-11-09T14:59:13.691Z,24.00
2022-11-09T15:01:41.888Z,20.67
2022-11-09T15:06:53.302Z,21.67
2022-11-09T15:09:20.007Z,25.00
2022-11-09T15:11:47.461Z,25.33
2022-11-09T15:14:13.985Z,23.00
2022-11-09T15:16:40.442Z,34.50
2022-11-09T15:22:01.909Z,28.50
2022-11-09T15:24:28.394Z,28.00
2022-11-09T15:26:54.853Z,27.50
2022-11-09T15:29:22.242Z,32.50
2022-11-09T15:31:49.660Z,26.00
2022-11-09T15:37:01.218Z,23.67
2022-11-09T15:39:27.699Z,27.50
2022-11-09T15:41:55.035Z,24.00
2022-11-09T15:44:21.471Z,18.00
2022-11-09T15:46:49.096Z,22.33
2022-11-09T15:52:02.595Z,21.50
2022-11-09T15:54:29.308Z,23.50
2022-11-09T15:56:55.755Z,20.00
2022-11-09T15:59:23.247Z,22.00
2022-11-09T16:01:50.736Z,25.67
2022-11-09T16:07:11.153Z,24.00
2022-11-09T16:09:38.759Z,29.67
2022-11-09T16:12:06.262Z,24.33
2022-11-09T16:14:34.008Z,24.33
2022-11-09T16:17:01.486Z,23.33
2022-11-09T16:22:13.802Z,23.33
2022-11-09T16:24:41.181Z,21.00
2022-11-09T16:27:12.777Z,26.50
2022-11-09T16:29:43.573Z,24.00
2022-11-09T16:32:11.182Z,25.67
2022-11-09T16:37:23.293Z,26.00
2022-11-09T16:39:50.117Z,30.00
2022-11-09T16:42:16.652Z,26.00
2022-11-09T16:44:43.159Z,29.00
2022-11-09T16:47:10.089Z,26.00
2022-11-09T16:52:31.923Z,24.50
2022-11-09T16:55:00.452Z,25.33
2022-11-09T16:57:26.917Z,26.00
2022-11-09T16:59:53.387Z,24.50
2022-11-09T17:02:20.899Z,28.33
2022-11-09T17:07:43.087Z,24.00
2022-11-09T17:10:10.311Z,25.00
2022-11-09T17:12:38.626Z,16.20
2022-11-09T17:15:05.907Z,16.00
2022-11-09T17:17:33.322Z,25.33
2022-11-09T17:22:46.226Z,20.33
2022-11-09T17:25:13.870Z,20.00
2022-11-09T17:27:41.380Z,21.00
2022-11-09T17:30:08.169Z,24.00
2022-11-09T17:32:35.586Z,22.67
2022-11-09T17:37:47.130Z,22.00
2022-11-09T17:40:14.610Z,22.67
2022-11-09T17:42:41.092Z,26.00
2022-11-09T17:45:07.583Z,24.00
2022-11-09T17:47:34.983Z,28.00
2022-11-09T17:52:55.717Z,30.00
2022-11-09T17:55:22.224Z,25.00
2022-11-09T17:57:48.727Z,31.50
2022-11-09T18:00:16.692Z,31.00
2022-11-09T18:02:44.076Z,32.00
2022-11-09T18:07:55.438Z,31.00
2022-11-09T18:10:22.079Z,27.50
2022-11-09T18:12:49.483Z,27.00
2022-11-09T18:15:15.970Z,31.00
2022-11-09T18:17:42.441Z,32.00
2022-11-09T18:22:53.773Z,31.50
2022-11-09T18:25:21.145Z,24.50
2022-11-09T18:27:48.571Z,36.50
2022-11-09T18:30:15.067Z,32.00
2022-11-09T18:32:42.689Z,36.00
2022-11-09T18:37:54.897Z,31.00
2022-11-09T18:40:21.374Z,31.50
2022-11-09T18:42:49.199Z,37.50
2022-11-09T18:45:15.707Z,34.00
2022-11-09T18:47:42.607Z,29.00
2022-11-09T18:53:03.156Z,30.00
2022-11-09T18:55:29.655Z,28.50
2022-11-09T18:57:56.216Z,31.00
2022-11-09T19:00:22.673Z,29.00
2022-11-09T19:02:49.327Z,26.00
2022-11-09T19:08:10.578Z,30.00
2022-11-09T19:10:37.365Z,30.50
2022-11-09T19:13:04.807Z,32.50
2022-11-09T19:15:32.237Z,30.00
2022-11-09T19:18:01.532Z,35.00
2022-11-09T19:23:12.178Z,33.00
2022-11-09T19:25:39.586Z,31.00
2022-11-09T19:28:06.964Z,34.50
2022-11-09T19:30:33.436Z,30.50
2022-11-09T19:32:59.910Z,39.50
2022-11-09T19:38:22.247Z,29.50
2022-11-09T19:40:49.133Z,30.00
2022-11-09T19:43:16.553Z,41.33
2022-11-09T19:45:43.001Z,44.50
2022-11-09T19:48:09.488Z,42.00
2022-11-09T19:53:32.018Z,39.67
2022-11-09T19:55:59.102Z,39.50
2022-11-09T19:58:26.491Z,38.00
2022-11-09T20:00:53.888Z,36.50
2022-11-09T20:03:21.290Z,30.00
2022-11-09T20:08:32.625Z,36.00
2022-11-09T20:11:00.032Z,36.00
2022-11-09T20:13:26.547Z,38.00
2022-11-09T20:15:53.042Z,32.00
2022-11-09T20:18:20.789Z,36.50
2022-11-09T20:23:42.484Z,30.00
2022-11-09T20:26:08.985Z,28.50
2022-11-09T20:28:36.369Z,32.00
2022-11-09T20:31:02.834Z,31.00
2022-11-09T20:33:30.233Z,37.00
2022-11-09T20:38:52.444Z,30.50
2022-11-09T20:41:25.057Z,31.00
2022-11-09T20:43:51.926Z,36.50
2022-11-09T20:46:19.360Z,33.50
2022-11-09T20:48:55.045Z,32.50
2022-11-09T20:54:17.187Z,30.00
2022-11-09T20:56:44.589Z,34.67
2022-11-09T20:59:11.960Z,29.00
2022-11-09T21:01:38.665Z,35.50
2022-11-09T21:04:05.161Z,28.00
2022-11-09T21:09:16.630Z,31.00
2022-11-09T21:11:44.001Z,35.00
2022-11-09T21:14:11.831Z,31.00
2022-11-09T21:16:38.288Z,34.00
2022-11-09T21:19:05.708Z,30.50
2022-11-09T21:24:27.130Z,32.00
2022-11-09T21:26:53.710Z,33.50
2022-11-09T21:29:21.112Z,30.50
2022-11-09T21:31:48.516Z,34.00
2022-11-09T21:34:15.898Z,33.50
2022-11-09T21:39:26.219Z,31.00
2022-11-09T21:41:52.692Z,30.00
2022-11-09T21:44:20.093Z,32.50
2022-11-09T21:46:46.583Z,30.00
2022-11-09T21:49:14.179Z,31.50
2022-11-09T21:54:26.863Z,34.50
2022-11-09T21:56:53.582Z,46.50
2022-11-09T21:59:20.979Z,41.00
2022-11-09T22:01:47.524Z,36.00
2022-11-09T22:04:14.925Z,39.50
2022-11-09T22:09:57.815Z,34.50
2022-11-09T22:12:22.694Z,38.50
2022-11-09T22:14:49.180Z,27.50
2022-11-09T22:17:16.573Z,33.00
2022-11-09T22:19:43.951Z,34.00
2022-11-09T22:24:55.247Z,34.50
2022-11-09T22:27:22.656Z,35.00
2022-11-09T22:29:49.122Z,32.00
2022-11-09T22:32:15.570Z,33.00
2022-11-09T22:34:42.967Z,23.67
2022-11-09T22:39:53.582Z,27.00
2022-11-09T22:42:20.047Z,34.00
2022-11-09T22:44:47.445Z,31.00
2022-11-09T22:47:14.838Z,29.00
2022-11-09T22:49:41.258Z,27.50
2022-11-09T22:54:52.016Z,33.50
2022-11-09T22:57:19.396Z,32.00
2022-11-09T22:59:45.869Z,34.00
2022-11-09T23:02:13.262Z,32.00
2022-11-09T23:04:40.656Z,32.50
2022-11-09T23:09:52.047Z,34.00
2022-11-09T23:12:19.448Z,36.50
2022-11-09T23:14:45.931Z,33.50
2022-11-09T23:17:13.341Z,32.50
2022-11-09T23:19:39.792Z,40.50
2022-11-09T23:24:50.236Z,35.00
2022-11-09T23:27:17.653Z,34.50
2022-11-09T23:29:44.095Z,22.00
2022-11-09T23:32:11.496Z,34.00
2022-11-09T23:34:37.952Z,31.50
2022-11-09T23:37:04.503Z,35.50
2022-11-09T23:39:31.894Z,32.00
2022-11-09T23:41:58.352Z,31.50
2022-11-09T23:44:25.739Z,33.00
2022-11-09T23:46:52.191Z,34.50
2022-11-09T23:49:19.590Z,29.50
2022-11-09T23:51:46.057Z,33.50
2022-11-09T23:54:12.510Z,38.50
2022-11-09T23:56:38.983Z,33.00
2022-11-09T23:59:05.488Z,35.50
